createdAt,value
2018-10-21T00:01:17.997Z,38.93
2018-10-21T00:03:45.501Z,33.00
2018-10-21T00:06:12.991Z,38.47
2018-10-21T00:08:40.520Z,36.00
2018-10-21T00:11:09.415Z,42.43
2018-10-21T00:13:38.616Z,44.63
2018-10-21T00:16:06.859Z,44.83
2018-10-21T00:18:36.218Z,37.27
2018-10-21T00:21:03.980Z,36.10
2018-10-21T00:23:32.002Z,34.77
2018-10-21T00:26:00.077Z,37.30
2018-10-21T00:28:27.631Z,41.27
2018-10-21T00:30:55.183Z,36.30
2018-10-21T00:33:23.581Z,28.20
2018-10-21T00:35:51.210Z,27.87
2018-10-21T00:38:19.536Z,41.00
2018-10-21T00:40:47.125Z,35.23
2018-10-21T00:43:15.631Z,45.10
2018-10-21T00:45:43.143Z,38.10
2018-10-21T00:48:11.346Z,40.30
2018-10-21T00:50:38.999Z,43.40
2018-10-21T00:53:06.562Z,37.20
2018-10-21T00:55:34.477Z,42.17
2018-10-21T00:58:01.969Z,39.37
2018-10-21T01:00:30.283Z,46.53
2018-10-21T01:02:57.891Z,51.23
2018-10-21T01:05:25.999Z,36.83
2018-10-21T01:07:53.564Z,45.83
2018-10-21T01:10:21.085Z,33.80
2018-10-21T01:12:49.766Z,43.53
2018-10-21T01:15:18.083Z,40.07
2018-10-21T01:17:47.326Z,37.80
2018-10-21T01:20:15.289Z,46.83
2018-10-21T01:22:42.812Z,34.87
2018-10-21T01:25:11.152Z,35.33
2018-10-21T01:27:39.775Z,35.90
2018-10-21T01:30:09.592Z,52.57
2018-10-21T01:32:37.100Z,53.80
2018-10-21T01:35:05.944Z,53.07
2018-10-21T01:37:33.974Z,34.83
2018-10-21T01:40:41.154Z,39.47
2018-10-21T01:43:10.296Z,40.70
2018-10-21T01:45:37.910Z,40.20
2018-10-21T01:48:08.175Z,41.43
2018-10-21T01:50:35.838Z,49.43
2018-10-21T01:53:04.757Z,49.43
2018-10-21T01:55:32.480Z,43.83
2018-10-21T01:58:00.994Z,49.67
2018-10-21T02:00:29.277Z,50.00
2018-10-21T02:02:57.267Z,48.53
2018-10-21T02:05:25.050Z,47.47
2018-10-21T02:07:52.796Z,36.70
2018-10-21T02:10:21.330Z,44.13
2018-10-21T02:12:48.820Z,37.00
2018-10-21T02:15:16.867Z,30.10
2018-10-21T02:17:45.049Z,33.67
2018-10-21T02:20:14.138Z,41.07
2018-10-21T02:22:42.482Z,43.97
2018-10-21T02:25:11.229Z,43.40
2018-10-21T02:27:39.898Z,43.47
2018-10-21T02:30:14.278Z,35.13
2018-10-21T02:32:42.251Z,36.80
2018-10-21T02:35:10.636Z,32.93
2018-10-21T02:37:39.230Z,34.03
2018-10-21T02:40:16.969Z,29.90
2018-10-21T02:42:44.841Z,34.67
2018-10-21T02:45:12.996Z,29.93
2018-10-21T02:47:41.182Z,27.43
2018-10-21T02:50:09.505Z,30.73
2018-10-21T02:52:37.005Z,46.03
2018-10-21T02:55:05.229Z,36.63
2018-10-21T02:57:32.730Z,51.10
2018-10-21T03:00:00.234Z,55.87
2018-10-21T03:02:27.781Z,58.73
2018-10-21T03:04:55.311Z,57.60
2018-10-21T03:07:23.818Z,52.50
2018-10-21T03:09:51.303Z,53.20
2018-10-21T03:12:18.817Z,57.90
2018-10-21T03:14:47.479Z,65.40
2018-10-21T03:17:15.567Z,45.80
2018-10-21T03:19:43.741Z,49.50
2018-10-21T03:22:11.315Z,55.40
2018-10-21T03:24:39.371Z,40.47
2018-10-21T03:27:06.906Z,42.30
2018-10-21T03:29:34.465Z,43.30
2018-10-21T03:32:02.312Z,37.53
2018-10-21T03:34:29.818Z,49.60
2018-10-21T03:36:57.547Z,63.47
2018-10-21T03:39:26.194Z,55.20
2018-10-21T03:41:53.710Z,59.53
2018-10-21T03:44:21.215Z,72.10
2018-10-21T03:46:49.091Z,69.93
2018-10-21T03:49:17.898Z,75.97
2018-10-21T03:51:45.962Z,70.90
2018-10-21T03:54:13.453Z,80.53
2018-10-21T03:56:41.098Z,73.17
2018-10-21T03:59:08.860Z,66.10
2018-10-21T04:01:36.943Z,60.20
2018-10-21T04:04:05.030Z,62.27
2018-10-21T04:06:33.297Z,64.20
2018-10-21T04:09:00.789Z,71.47
2018-10-21T04:11:28.380Z,79.00
2018-10-21T04:13:56.695Z,74.90
2018-10-21T04:16:25.192Z,79.87
2018-10-21T04:18:53.381Z,78.77
2018-10-21T04:21:20.886Z,74.93
2018-10-21T04:23:49.623Z,87.10
2018-10-21T04:26:17.128Z,86.80
2018-10-21T04:28:44.642Z,79.63
2018-10-21T04:31:12.627Z,94.87
2018-10-21T04:33:40.806Z,80.43
2018-10-21T04:36:09.946Z,82.50
2018-10-21T04:38:51.903Z,85.50
2018-10-21T04:41:19.423Z,80.13
2018-10-21T04:43:46.943Z,88.00
2018-10-21T04:46:14.745Z,86.77
2018-10-21T04:48:42.658Z,82.57
2018-10-21T04:51:10.690Z,92.00
2018-10-21T04:53:38.183Z,90.97
2018-10-21T04:56:05.746Z,85.33
2018-10-21T04:58:34.042Z,89.33
2018-10-21T05:01:01.970Z,86.23
2018-10-21T05:03:30.639Z,84.40
2018-10-21T05:05:58.157Z,87.30
2018-10-21T05:08:25.657Z,97.20
2018-10-21T05:10:54.224Z,93.20
2018-10-21T05:13:23.626Z,91.03
2018-10-21T05:15:51.152Z,94.33
2018-10-21T05:18:19.981Z,103.17
2018-10-21T05:20:48.010Z,94.30
2018-10-21T05:23:15.495Z,97.23
2018-10-21T05:25:43.594Z,88.70
2018-10-21T05:28:11.224Z,88.83
2018-10-21T05:30:38.666Z,91.70
2018-10-21T05:33:06.629Z,88.03
2018-10-21T05:35:34.234Z,89.17
2018-10-21T05:38:03.240Z,92.77
2018-10-21T05:40:30.689Z,94.70
2018-10-21T05:42:58.191Z,95.87
2018-10-21T05:45:25.727Z,87.50
2018-10-21T05:47:54.419Z,96.73
2018-10-21T05:50:22.683Z,82.87
2018-10-21T05:52:50.170Z,83.03
2018-10-21T05:55:17.757Z,92.03
2018-10-21T05:57:46.590Z,88.07
2018-10-21T06:00:16.739Z,90.10
2018-10-21T06:02:44.339Z,90.57
2018-10-21T06:05:23.571Z,87.53
2018-10-21T06:09:20.775Z,96.23
2018-10-21T06:13:18.469Z,92.40
2018-10-21T06:15:46.429Z,90.07
2018-10-21T06:18:21.993Z,84.33
2018-10-21T06:20:51.401Z,91.33
2018-10-21T06:23:18.891Z,92.97
2018-10-21T06:25:47.065Z,81.70
2018-10-21T06:28:14.661Z,80.53
2018-10-21T06:30:42.869Z,85.67
2018-10-21T06:33:11.253Z,87.47
2018-10-21T06:35:38.737Z,89.40
2018-10-21T06:38:07.135Z,96.33
2018-10-21T06:40:34.877Z,91.80
2018-10-21T06:43:02.408Z,91.80
2018-10-21T06:45:30.500Z,87.33
2018-10-21T06:47:58.826Z,92.03
2018-10-21T06:50:27.823Z,88.20
2018-10-21T06:52:56.171Z,84.80
2018-10-21T06:55:25.166Z,94.70
2018-10-21T06:57:53.821Z,85.03
2018-10-21T07:00:21.303Z,80.50
2018-10-21T07:02:48.831Z,91.93
2018-10-21T07:05:28.211Z,82.00
2018-10-21T07:07:57.331Z,85.67
2018-10-21T07:10:24.863Z,90.40
2018-10-21T07:12:52.476Z,91.80
2018-10-21T07:15:21.071Z,82.53
2018-10-21T07:17:48.955Z,82.80
2018-10-21T07:20:16.486Z,80.23
2018-10-21T07:22:44.616Z,83.30
2018-10-21T07:25:13.168Z,88.23
2018-10-21T07:27:41.089Z,79.20
2018-10-21T07:30:10.283Z,79.10
2018-10-21T07:32:38.832Z,81.87
2018-10-21T07:35:08.555Z,83.30
2018-10-21T07:37:36.731Z,81.23
2018-10-21T07:40:04.943Z,85.03
2018-10-21T07:42:33.091Z,87.73
2018-10-21T07:45:00.591Z,78.63
2018-10-21T07:47:28.102Z,85.97
2018-10-21T07:49:56.009Z,77.73
2018-10-21T07:52:23.592Z,74.83
2018-10-21T07:54:52.436Z,60.73
2018-10-21T07:57:20.617Z,63.10
2018-10-21T07:59:48.843Z,60.23
2018-10-21T08:02:16.367Z,54.03
2018-10-21T08:04:44.346Z,56.00
2018-10-21T08:07:24.109Z,54.10
2018-10-21T08:09:51.623Z,53.80
2018-10-21T08:12:20.641Z,49.20
2018-10-21T08:14:49.424Z,51.07
2018-10-21T08:17:17.403Z,47.57
2018-10-21T08:19:44.915Z,45.83
2018-10-21T08:22:12.841Z,46.43
2018-10-21T08:24:41.975Z,43.87
2018-10-21T08:27:10.201Z,38.87
2018-10-21T08:29:38.710Z,36.53
2018-10-21T08:32:06.905Z,37.03
2018-10-21T08:34:35.856Z,34.47
2018-10-21T08:37:04.513Z,33.03
2018-10-21T08:39:34.207Z,33.10
2018-10-21T08:42:02.669Z,30.70
2018-10-21T08:44:31.344Z,31.20
2018-10-21T08:46:59.531Z,22.90
2018-10-21T08:49:28.183Z,30.70
2018-10-21T08:51:56.975Z,25.17
2018-10-21T08:54:26.280Z,27.37
2018-10-21T08:56:54.267Z,28.97
2018-10-21T08:59:22.045Z,30.47
2018-10-21T09:01:50.694Z,37.30
2018-10-21T09:04:18.776Z,25.27
2018-10-21T09:06:47.926Z,25.97
2018-10-21T09:09:15.693Z,25.33
2018-10-21T09:11:44.327Z,24.37
2018-10-21T09:14:13.804Z,21.90
2018-10-21T09:16:42.352Z,22.07
2018-10-21T09:19:10.719Z,20.37
2018-10-21T09:21:38.541Z,17.73
2018-10-21T09:24:07.309Z,17.67
2018-10-21T09:26:35.669Z,15.97
2018-10-21T09:29:03.586Z,16.30
2018-10-21T09:31:32.926Z,14.70
2018-10-21T09:34:01.265Z,16.27
2018-10-21T09:36:29.354Z,15.70
2018-10-21T09:38:57.434Z,11.53
2018-10-21T09:41:24.954Z,15.90
2018-10-21T09:43:52.607Z,24.53
2018-10-21T09:46:20.332Z,13.37
2018-10-21T09:48:48.536Z,13.37
2018-10-21T09:51:16.443Z,13.10
2018-10-21T09:53:44.433Z,12.30
2018-10-21T09:56:12.130Z,11.30
2018-10-21T09:58:40.844Z,10.57
2018-10-21T10:01:14.281Z,7.60
2018-10-21T10:03:42.028Z,7.40
2018-10-21T10:06:09.604Z,6.23
2018-10-21T10:08:37.925Z,5.40
2018-10-21T10:11:05.485Z,6.70
2018-10-21T10:13:33.739Z,5.00
2018-10-21T10:16:01.347Z,4.10
2018-10-21T10:18:29.684Z,4.50
2018-10-21T10:20:57.232Z,6.33
2018-10-21T10:23:24.814Z,6.27
2018-10-21T10:25:52.933Z,5.07
2018-10-21T10:28:20.448Z,8.50
2018-10-21T10:30:47.957Z,6.70
2018-10-21T10:33:16.428Z,6.60
2018-10-21T10:35:44.950Z,9.83
2018-10-21T10:38:13.111Z,8.53
2018-10-21T10:40:40.856Z,10.13
2018-10-21T10:43:08.390Z,8.90
2018-10-21T10:45:36.813Z,8.70
2018-10-21T10:48:05.561Z,7.90
2018-10-21T10:50:34.460Z,10.33
2018-10-21T10:53:02.147Z,11.80
2018-10-21T10:55:35.394Z,8.50
2018-10-21T10:58:03.824Z,21.00
2018-10-21T11:00:31.367Z,21.10
2018-10-21T11:02:58.920Z,13.20
2018-10-21T11:05:27.053Z,16.80
2018-10-21T11:07:55.440Z,14.17
2018-10-21T11:10:23.653Z,15.27
2018-10-21T11:12:52.102Z,14.60
2018-10-21T11:15:20.140Z,25.77
2018-10-21T11:17:48.181Z,13.60
2018-10-21T11:20:15.690Z,17.00
2018-10-21T11:22:43.269Z,12.20
2018-10-21T11:25:11.565Z,15.97
2018-10-21T11:27:40.453Z,15.27
2018-10-21T11:30:08.734Z,11.43
2018-10-21T11:32:36.805Z,13.67
2018-10-21T11:35:05.229Z,20.33
2018-10-21T11:37:33.460Z,12.70
2018-10-21T11:40:00.828Z,11.27
2018-10-21T11:42:28.340Z,30.40
2018-10-21T11:44:55.946Z,17.50
2018-10-21T11:47:24.165Z,17.67
2018-10-21T11:49:53.223Z,12.57
2018-10-21T11:52:20.998Z,21.50
2018-10-21T11:54:49.094Z,10.97
2018-10-21T11:57:17.477Z,10.73
2018-10-21T11:59:45.581Z,7.30
2018-10-21T12:02:13.193Z,8.97
2018-10-21T12:04:41.497Z,6.83
2018-10-21T12:07:09.853Z,7.73
2018-10-21T12:09:38.600Z,6.77
2018-10-21T12:12:06.136Z,6.80
2018-10-21T12:14:34.408Z,7.40
2018-10-21T12:17:02.493Z,7.07
2018-10-21T12:19:29.978Z,6.77
2018-10-21T12:21:57.504Z,7.40
2018-10-21T12:24:25.701Z,8.60
2018-10-21T12:26:53.238Z,9.20
2018-10-21T12:29:21.648Z,11.33
2018-10-21T12:31:49.888Z,8.40
2018-10-21T12:34:17.526Z,8.93
2018-10-21T12:36:44.973Z,7.97
2018-10-21T12:39:13.112Z,8.90
2018-10-21T12:41:41.655Z,9.20
2018-10-21T12:44:09.784Z,5.27
2018-10-21T12:46:37.718Z,6.17
2018-10-21T12:49:06.194Z,6.93
2018-10-21T12:51:34.536Z,4.97
2018-10-21T12:54:02.656Z,5.30
2018-10-21T12:56:31.711Z,7.53
2018-10-21T12:58:59.891Z,5.57
2018-10-21T13:01:28.112Z,4.20
2018-10-21T13:03:55.721Z,6.93
2018-10-21T13:06:23.232Z,4.10
2018-10-21T13:08:52.191Z,4.67
2018-10-21T13:11:19.691Z,6.10
2018-10-21T13:13:47.734Z,4.67
2018-10-21T13:16:15.308Z,3.70
2018-10-21T13:18:43.261Z,3.80
2018-10-21T13:21:10.762Z,3.30
2018-10-21T13:23:38.848Z,3.87
2018-10-21T13:26:07.076Z,5.30
2018-10-21T13:28:35.808Z,3.33
2018-10-21T13:31:03.406Z,5.57
2018-10-21T13:33:30.868Z,3.67
2018-10-21T13:35:58.481Z,3.70
2018-10-21T13:38:27.459Z,3.73
2018-10-21T13:40:55.944Z,3.50
2018-10-21T13:43:23.557Z,3.17
2018-10-21T13:45:51.213Z,4.77
2018-10-21T13:48:19.087Z,4.30
2018-10-21T13:50:47.414Z,4.33
2018-10-21T13:53:14.945Z,4.50
2018-10-21T13:55:42.456Z,3.60
2018-10-21T13:58:10.516Z,4.13
2018-10-21T14:00:38.627Z,3.13
2018-10-21T14:03:06.073Z,6.37
2018-10-21T14:05:33.576Z,5.33
2018-10-21T14:08:01.514Z,4.50
2018-10-21T14:10:29.117Z,4.57
2018-10-21T14:12:56.902Z,4.30
2018-10-21T14:15:25.185Z,4.80
2018-10-21T14:17:53.323Z,3.93
2018-10-21T14:20:21.541Z,4.00
2018-10-21T14:22:49.112Z,3.60
2018-10-21T14:25:17.636Z,5.90
2018-10-21T14:27:45.287Z,3.30
2018-10-21T14:30:13.352Z,3.53
2018-10-21T14:32:40.844Z,3.30
2018-10-21T14:35:09.369Z,4.43
2018-10-21T14:37:37.971Z,4.73
2018-10-21T14:40:07.950Z,4.57
2018-10-21T14:42:35.474Z,3.80
2018-10-21T14:45:03.071Z,5.03
2018-10-21T14:47:31.242Z,8.07
2018-10-21T14:49:59.376Z,3.17
2018-10-21T14:52:26.867Z,7.37
2018-10-21T14:54:55.258Z,10.13
2018-10-21T14:57:23.762Z,11.77
2018-10-21T14:59:51.294Z,19.43
2018-10-21T15:02:18.797Z,14.30
2018-10-21T15:04:46.547Z,6.90
2018-10-21T15:07:14.078Z,32.93
2018-10-21T15:09:41.867Z,54.40
2018-10-21T15:12:09.448Z,21.90
2018-10-21T15:14:37.376Z,17.60
2018-10-21T15:17:05.725Z,77.13
2018-10-21T15:19:33.328Z,22.10
2018-10-21T15:22:00.911Z,18.80
2018-10-21T15:24:29.022Z,13.50
2018-10-21T15:26:56.526Z,10.80
2018-10-21T15:29:24.022Z,17.30
2018-10-21T15:31:51.912Z,15.53
2018-10-21T15:34:19.440Z,10.20
2018-10-21T15:36:48.575Z,64.30
2018-10-21T15:39:16.994Z,271.73
2018-10-21T15:41:44.696Z,97.93
2018-10-21T15:44:12.312Z,32.67
2018-10-21T15:46:40.606Z,12.87
2018-10-21T15:49:09.711Z,7.50
2018-10-21T15:51:37.277Z,8.13
2018-10-21T15:54:06.235Z,8.83
2018-10-21T15:56:33.761Z,10.30
2018-10-21T15:59:01.287Z,7.00
2018-10-21T16:01:29.018Z,5.70
2018-10-21T16:03:57.096Z,5.23
2018-10-21T16:06:24.922Z,6.57
2018-10-21T16:08:52.855Z,5.73
2018-10-21T16:11:21.156Z,4.60
2018-10-21T16:13:49.298Z,5.43
2018-10-21T16:16:16.891Z,3.73
2018-10-21T16:18:46.071Z,4.73
2018-10-21T16:21:14.367Z,3.77
2018-10-21T16:23:42.632Z,4.43
2018-10-21T16:26:10.781Z,6.97
2018-10-21T16:28:38.135Z,5.83
2018-10-21T16:31:05.709Z,5.07
2018-10-21T16:33:34.522Z,6.10
2018-10-21T16:36:02.031Z,4.90
2018-10-21T16:38:30.491Z,10.73
2018-10-21T16:40:58.755Z,6.13
2018-10-21T16:43:26.848Z,11.30
2018-10-21T16:45:54.361Z,8.53
2018-10-21T16:48:22.557Z,6.70
2018-10-21T16:50:50.866Z,7.57
2018-10-21T16:53:18.407Z,11.93
2018-10-21T16:55:46.003Z,18.13
2018-10-21T16:58:13.664Z,16.33
2018-10-21T17:00:41.476Z,17.23
2018-10-21T17:03:09.084Z,15.93
2018-10-21T17:05:36.858Z,13.63
2018-10-21T17:08:05.037Z,11.90
2018-10-21T17:10:32.914Z,13.67
2018-10-21T17:13:01.021Z,16.60
2018-10-21T17:15:28.541Z,17.47
2018-10-21T17:17:56.540Z,13.77
2018-10-21T17:20:24.506Z,20.90
2018-10-21T17:22:51.997Z,12.20
2018-10-21T17:25:20.861Z,9.47
2018-10-21T17:27:48.415Z,10.50
2018-10-21T17:30:17.181Z,7.80
2018-10-21T17:32:45.797Z,10.40
2018-10-21T17:35:13.930Z,7.43
2018-10-21T17:37:42.658Z,9.20
2018-10-21T17:40:11.656Z,7.13
2018-10-21T17:42:39.603Z,10.00
2018-10-21T17:45:10.085Z,23.60
2018-10-21T17:47:38.671Z,23.10
2018-10-21T17:50:08.672Z,22.87
2018-10-21T17:52:36.592Z,12.30
2018-10-21T17:55:05.473Z,13.73
2018-10-21T17:57:34.062Z,12.47
2018-10-21T18:00:02.024Z,16.00
2018-10-21T18:02:29.830Z,18.90
2018-10-21T18:04:57.663Z,18.30
2018-10-21T18:07:26.242Z,16.33
2018-10-21T18:09:54.649Z,15.67
2018-10-21T18:12:22.804Z,13.87
2018-10-21T18:14:51.162Z,25.40
2018-10-21T18:17:19.104Z,23.80
2018-10-21T18:19:46.640Z,21.77
2018-10-21T18:22:14.172Z,19.00
2018-10-21T18:24:42.256Z,11.93
2018-10-21T18:27:11.863Z,10.50
2018-10-21T18:29:40.054Z,14.97
2018-10-21T18:32:08.440Z,19.47
2018-10-21T18:34:36.084Z,16.93
2018-10-21T18:37:03.811Z,21.70
2018-10-21T18:39:32.990Z,26.43
2018-10-21T18:42:01.358Z,18.53
2018-10-21T18:44:28.900Z,22.57
2018-10-21T18:46:57.910Z,11.70
2018-10-21T18:49:26.445Z,13.80
2018-10-21T18:51:54.142Z,17.13
2018-10-21T18:54:23.471Z,13.33
2018-10-21T18:56:51.265Z,12.20
2018-10-21T18:59:19.578Z,15.43
2018-10-21T19:01:47.234Z,10.47
2018-10-21T19:04:14.925Z,10.57
2018-10-21T19:06:42.468Z,12.63
2018-10-21T19:09:11.384Z,8.80
2018-10-21T19:11:39.232Z,6.17
2018-10-21T19:14:07.712Z,9.47
2018-10-21T19:16:36.079Z,6.13
2018-10-21T19:19:03.879Z,6.87
2018-10-21T19:21:31.543Z,11.70
2018-10-21T19:24:00.560Z,11.73
2018-10-21T19:26:29.166Z,12.47
2018-10-21T19:28:57.661Z,12.87
2018-10-21T19:31:25.690Z,14.63
2018-10-21T19:33:53.276Z,19.40
2018-10-21T19:36:21.296Z,17.07
2018-10-21T19:38:49.345Z,10.57
2018-10-21T19:41:17.730Z,8.00
2018-10-21T19:43:46.128Z,9.47
2018-10-21T19:46:14.341Z,14.30
2018-10-21T19:48:42.384Z,8.10
2018-10-21T19:51:11.626Z,11.97
2018-10-21T19:53:39.178Z,10.33
2018-10-21T19:56:07.652Z,6.80
2018-10-21T19:58:35.287Z,10.53
2018-10-21T20:01:03.380Z,7.67
2018-10-21T20:03:31.961Z,5.57
2018-10-21T20:06:00.129Z,5.27
2018-10-21T20:08:27.632Z,7.47
2018-10-21T20:10:56.242Z,8.77
2018-10-21T20:13:24.364Z,7.67
2018-10-21T20:15:51.868Z,8.97
2018-10-21T20:18:20.107Z,6.60
2018-10-21T20:20:48.111Z,7.33
2018-10-21T20:23:15.718Z,10.13
2018-10-21T20:25:43.854Z,13.07
2018-10-21T20:28:11.707Z,10.80
2018-10-21T20:30:39.923Z,7.73
2018-10-21T20:33:08.696Z,9.53
2018-10-21T20:35:36.206Z,7.37
2018-10-21T20:38:07.378Z,6.47
2018-10-21T20:40:35.654Z,7.03
2018-10-21T20:43:03.861Z,7.20
2018-10-21T20:45:31.365Z,10.77
2018-10-21T20:47:59.731Z,7.07
2018-10-21T20:50:28.462Z,11.57
2018-10-21T20:52:55.965Z,14.73
2018-10-21T20:55:23.476Z,9.33
2018-10-21T20:57:51.212Z,13.83
2018-10-21T21:00:18.889Z,15.93
2018-10-21T21:02:46.576Z,18.00
2018-10-21T21:05:14.688Z,15.17
2018-10-21T21:07:42.255Z,13.60
2018-10-21T21:10:10.678Z,16.87
2018-10-21T21:12:38.741Z,17.10
2018-10-21T21:15:07.696Z,12.80
2018-10-21T21:17:35.880Z,17.33
2018-10-21T21:20:04.138Z,19.03
2018-10-21T21:22:33.541Z,11.07
2018-10-21T21:25:01.610Z,9.07
2018-10-21T21:27:29.811Z,7.53
2018-10-21T21:29:58.556Z,15.03
2018-10-21T21:32:26.361Z,10.03
2018-10-21T21:34:53.879Z,13.90
2018-10-21T21:37:22.015Z,13.80
2018-10-21T21:39:50.303Z,10.53
2018-10-21T21:42:18.468Z,13.90
2018-10-21T21:44:47.372Z,14.13
2018-10-21T21:47:16.125Z,13.03
2018-10-21T21:49:44.141Z,8.57
2018-10-21T21:52:11.746Z,8.60
2018-10-21T21:54:39.896Z,9.10
2018-10-21T21:57:07.741Z,9.73
2018-10-21T21:59:36.040Z,8.00
2018-10-21T22:02:04.713Z,6.30
2018-10-21T22:04:32.206Z,9.90
2018-10-21T22:07:01.487Z,6.67
2018-10-21T22:09:29.779Z,5.30
2018-10-21T22:11:57.313Z,6.03
2018-10-21T22:14:25.387Z,7.93
2018-10-21T22:16:53.689Z,8.23
2018-10-21T22:19:22.077Z,7.13
2018-10-21T22:21:49.607Z,6.30
2018-10-21T22:24:18.445Z,7.80
2018-10-21T22:26:45.867Z,7.93
2018-10-21T22:29:14.179Z,5.87
2018-10-21T22:31:42.226Z,6.53
2018-10-21T22:34:09.815Z,5.93
2018-10-21T22:36:37.302Z,7.53
2018-10-21T22:39:06.551Z,7.03
2018-10-21T22:41:34.627Z,11.73
2018-10-21T22:44:02.835Z,10.23
2018-10-21T22:46:30.412Z,11.43
2018-10-21T22:48:58.504Z,10.17
2018-10-21T22:51:26.353Z,9.27
2018-10-21T22:53:53.982Z,7.53
2018-10-21T22:56:21.476Z,7.83
2018-10-21T22:58:49.165Z,8.00
2018-10-21T23:01:17.460Z,7.10
2018-10-21T23:03:46.234Z,13.73
2018-10-21T23:06:13.996Z,7.00
2018-10-21T23:08:41.356Z,6.07
2018-10-21T23:11:09.424Z,8.53
2018-10-21T23:13:38.221Z,6.77
2018-10-21T23:16:06.212Z,12.63
2018-10-21T23:18:34.332Z,6.80
2018-10-21T23:21:02.088Z,4.97
2018-10-21T23:23:29.862Z,6.60
2018-10-21T23:25:57.715Z,5.70
2018-10-21T23:28:25.241Z,6.47
2018-10-21T23:30:53.212Z,9.00
2018-10-21T23:33:20.712Z,10.03
2018-10-21T23:35:48.212Z,8.87
2018-10-21T23:38:16.630Z,7.97
2018-10-21T23:40:44.805Z,6.60
2018-10-21T23:43:12.979Z,7.00
2018-10-21T23:45:41.052Z,4.97
2018-10-21T23:48:09.398Z,6.30
2018-10-21T23:50:37.418Z,9.70
2018-10-21T23:53:05.431Z,6.23
2018-10-21T23:55:32.939Z,8.73
2018-10-21T23:58:00.483Z,8.60
